Terminal Aerodrome Forecast
Issued by NWS

Home | Current Version | Previous Version | Text Only | Print | Product List | Glossary On
Versions: 1 2 3 4 5 6 7 8 9 10 11 12
194
FTUS42 TJSJ 142320
TAFNCM
TAF
TNCM 142320Z 1500/1524 07008KT P6SM SCT020
     FM151200 06017KT P6SM VCSH FEW020 SCT040
     FM152200 07012KT P6SM FEW022=

USA.gov is the U.S. government's official web portal to all federal, state and local government web resources and services.